createdAt,value
2023-05-03T00:01:47.855Z,1.80
2023-05-03T00:04:17.865Z,1.90
2023-05-03T00:06:47.518Z,1.60
2023-05-03T00:09:16.442Z,1.90
2023-05-03T00:11:44.805Z,2.00
2023-05-03T00:14:13.234Z,1.90
2023-05-03T00:16:41.424Z,1.80
2023-05-03T00:19:17.740Z,1.83
2023-05-03T00:21:54.173Z,1.83
2023-05-03T00:24:22.903Z,1.50
2023-05-03T00:26:51.077Z,1.60
2023-05-03T00:29:21.253Z,2.20
2023-05-03T00:31:49.677Z,1.93
2023-05-03T00:34:18.185Z,1.80
2023-05-03T00:36:46.533Z,2.20
2023-05-03T00:39:16.475Z,2.73
2023-05-03T00:41:44.817Z,2.70
2023-05-03T00:44:13.706Z,2.07
2023-05-03T00:46:41.978Z,2.60
2023-05-03T00:49:10.935Z,2.43
2023-05-03T00:51:39.572Z,2.80
2023-05-03T00:54:08.545Z,2.30
2023-05-03T00:56:48.340Z,2.47
2023-05-03T00:59:20.767Z,2.43
2023-05-03T01:01:50.215Z,2.87
2023-05-03T01:04:20.156Z,2.50
2023-05-03T01:06:56.765Z,2.33
2023-05-03T01:09:33.946Z,2.73
2023-05-03T01:12:14.130Z,2.23
2023-05-03T01:14:50.983Z,2.50
2023-05-03T01:17:21.229Z,2.37
2023-05-03T01:19:52.537Z,2.77
2023-05-03T01:22:28.801Z,2.70
2023-05-03T01:25:06.260Z,3.03
2023-05-03T01:27:34.600Z,3.00
2023-05-03T01:30:05.470Z,2.80
2023-05-03T01:32:42.176Z,3.20
2023-05-03T01:35:20.321Z,3.57
2023-05-03T01:37:49.782Z,3.70
2023-05-03T01:40:22.266Z,4.07
2023-05-03T01:42:52.822Z,4.13
2023-05-03T01:45:21.643Z,4.10
2023-05-03T01:47:50.327Z,3.50
2023-05-03T01:50:19.558Z,3.77
2023-05-03T01:52:52.414Z,4.83
2023-05-03T01:55:22.436Z,3.97
2023-05-03T01:57:50.739Z,4.20
2023-05-03T02:00:20.941Z,4.27
2023-05-03T02:02:49.150Z,4.07
2023-05-03T02:05:18.380Z,4.30
2023-05-03T02:07:46.836Z,4.40
2023-05-03T02:10:16.283Z,3.87
2023-05-03T02:12:46.321Z,3.90
2023-05-03T02:15:15.916Z,3.73
2023-05-03T02:17:45.556Z,4.00
2023-05-03T02:20:14.512Z,3.40
2023-05-03T02:22:43.237Z,3.53
2023-05-03T02:25:11.944Z,3.30
2023-05-03T02:27:40.643Z,3.27
2023-05-03T02:30:11.807Z,3.30
2023-05-03T02:32:44.102Z,3.37
2023-05-03T02:35:13.027Z,3.30
2023-05-03T02:37:41.791Z,3.10
2023-05-03T02:40:13.957Z,3.10
2023-05-03T02:42:44.434Z,3.40
2023-05-03T02:45:17.747Z,3.50
2023-05-03T02:47:46.084Z,3.30
2023-05-03T02:50:16.886Z,3.97
2023-05-03T02:52:45.151Z,4.03
2023-05-03T02:55:13.703Z,3.63
2023-05-03T02:57:44.168Z,4.27
2023-05-03T03:00:17.941Z,4.17
2023-05-03T03:02:46.525Z,3.87
2023-05-03T03:05:15.477Z,3.97
2023-05-03T03:07:49.293Z,3.87
2023-05-03T03:10:18.906Z,3.97
2023-05-03T03:12:47.792Z,3.67
2023-05-03T03:15:26.854Z,4.30
2023-05-03T03:17:57.862Z,3.97
2023-05-03T03:20:27.480Z,3.53
2023-05-03T03:22:56.169Z,3.93
2023-05-03T03:25:25.054Z,4.20
2023-05-03T03:27:54.116Z,4.10
2023-05-03T03:30:22.784Z,4.20
2023-05-03T03:33:05.013Z,3.90
2023-05-03T03:35:39.690Z,3.80
2023-05-03T03:38:08.442Z,3.90
2023-05-03T03:40:41.380Z,3.63
2023-05-03T03:43:10.008Z,3.60
2023-05-03T03:45:38.472Z,3.87
2023-05-03T03:48:09.163Z,4.07
2023-05-03T03:50:38.238Z,3.70
2023-05-03T03:53:09.203Z,4.50
2023-05-03T03:55:38.282Z,3.93
2023-05-03T03:58:07.028Z,4.27
2023-05-03T04:00:36.449Z,4.43
2023-05-03T04:03:12.716Z,3.43
2023-05-03T04:05:42.276Z,4.37
2023-05-03T04:08:11.153Z,3.80
2023-05-03T04:10:41.380Z,3.77
2023-05-03T04:13:10.031Z,4.57
2023-05-03T04:15:38.824Z,3.70
2023-05-03T04:18:08.784Z,4.40
2023-05-03T04:20:41.366Z,4.27
2023-05-03T04:23:10.505Z,4.00
2023-05-03T04:25:46.517Z,4.00
2023-05-03T04:28:16.189Z,4.50
2023-05-03T04:30:48.425Z,4.33
2023-05-03T04:33:22.616Z,5.00
2023-05-03T04:35:54.408Z,7.60
2023-05-03T04:38:23.377Z,5.77
2023-05-03T04:40:52.169Z,10.43
2023-05-03T04:43:20.726Z,5.70
2023-05-03T04:45:52.640Z,6.13
2023-05-03T04:48:24.454Z,4.90
2023-05-03T04:50:54.597Z,3.97
2023-05-03T04:53:25.010Z,3.80
2023-05-03T04:56:05.722Z,4.00
2023-05-03T04:58:37.915Z,4.93
2023-05-03T05:01:08.254Z,12.90
2023-05-03T05:03:36.752Z,4.77
2023-05-03T05:06:12.909Z,5.27
2023-05-03T05:08:43.220Z,5.40
2023-05-03T05:11:14.644Z,8.63
2023-05-03T05:13:43.360Z,13.33
2023-05-03T05:16:11.924Z,4.93
2023-05-03T05:18:43.926Z,5.50
2023-05-03T05:21:14.612Z,5.63
2023-05-03T05:23:43.058Z,6.63
2023-05-03T05:26:11.658Z,5.00
2023-05-03T05:28:40.460Z,3.80
2023-05-03T05:31:09.214Z,4.13
2023-05-03T05:33:38.201Z,3.43
2023-05-03T05:36:07.585Z,3.10
2023-05-03T05:38:37.986Z,3.57
2023-05-03T05:41:07.113Z,3.67
2023-05-03T05:43:36.267Z,3.60
2023-05-03T05:46:05.804Z,3.47
2023-05-03T05:48:34.152Z,3.93
2023-05-03T05:51:04.026Z,3.73
2023-05-03T05:53:32.398Z,4.30
2023-05-03T05:56:06.168Z,4.03
2023-05-03T05:58:37.288Z,3.70
2023-05-03T06:01:07.205Z,3.93
2023-05-03T06:03:38.407Z,3.90
2023-05-03T06:06:09.594Z,4.50
2023-05-03T06:08:38.464Z,4.23
2023-05-03T06:11:08.905Z,3.83
2023-05-03T06:13:38.623Z,3.90
2023-05-03T06:16:09.027Z,3.20
2023-05-03T06:18:37.440Z,3.60
2023-05-03T06:21:06.320Z,4.10
2023-05-03T06:23:35.310Z,4.30
2023-05-03T06:26:05.310Z,3.77
2023-05-03T06:28:36.233Z,3.67
2023-05-03T06:31:04.730Z,3.67
2023-05-03T06:33:34.413Z,3.23
2023-05-03T06:36:02.997Z,7.07
2023-05-03T06:38:31.757Z,5.23
2023-05-03T06:41:00.442Z,8.80
2023-05-03T06:43:28.671Z,6.47
2023-05-03T06:46:04.612Z,4.43
2023-05-03T06:48:33.102Z,3.57
2023-05-03T06:51:01.546Z,3.73
2023-05-03T06:53:29.972Z,3.33
2023-05-03T06:55:58.762Z,3.03
2023-05-03T06:58:27.221Z,3.23
2023-05-03T07:00:55.650Z,3.50
2023-05-03T07:03:25.431Z,3.10
2023-05-03T07:05:54.174Z,2.90
2023-05-03T07:08:22.512Z,3.60
2023-05-03T07:10:51.028Z,3.13
2023-05-03T07:13:19.278Z,3.03
2023-05-03T07:15:48.050Z,3.53
2023-05-03T07:18:17.534Z,2.60
2023-05-03T07:20:47.622Z,2.60
2023-05-03T07:23:16.317Z,2.57
2023-05-03T07:25:45.701Z,2.47
2023-05-03T07:28:14.036Z,2.70
2023-05-03T07:30:42.620Z,3.03
2023-05-03T07:33:11.072Z,2.33
2023-05-03T07:35:39.749Z,2.50
2023-05-03T07:38:09.524Z,2.60
2023-05-03T07:40:38.244Z,2.47
2023-05-03T07:43:06.561Z,2.40
2023-05-03T07:45:35.077Z,2.00
2023-05-03T07:48:04.264Z,2.07
2023-05-03T07:50:33.242Z,2.10
2023-05-03T07:53:01.789Z,2.67
2023-05-03T07:55:33.007Z,2.37
2023-05-03T07:58:01.483Z,2.17
2023-05-03T08:00:30.235Z,2.27
2023-05-03T08:02:58.670Z,1.83
2023-05-03T08:05:27.675Z,1.60
2023-05-03T08:07:56.023Z,1.90
2023-05-03T08:10:25.112Z,1.77
2023-05-03T08:12:54.760Z,2.67
2023-05-03T08:15:24.053Z,2.13
2023-05-03T08:17:52.684Z,2.10
2023-05-03T08:20:21.817Z,5.63
2023-05-03T08:22:50.579Z,2.77
2023-05-03T08:25:20.633Z,2.60
2023-05-03T08:27:49.347Z,3.10
2023-05-03T08:30:19.371Z,3.73
2023-05-03T08:32:47.647Z,4.37
2023-05-03T08:35:16.602Z,4.37
2023-05-03T08:37:46.336Z,8.57
2023-05-03T08:40:15.451Z,5.10
2023-05-03T08:42:44.978Z,4.50
2023-05-03T08:45:15.811Z,4.77
2023-05-03T08:47:46.338Z,5.77
2023-05-03T08:50:16.534Z,4.33
2023-05-03T08:52:45.480Z,5.30
2023-05-03T08:55:14.258Z,5.33
2023-05-03T08:57:42.587Z,5.10
2023-05-03T09:00:12.846Z,5.47
2023-05-03T09:02:42.017Z,5.70
2023-05-03T09:05:39.057Z,5.17
2023-05-03T09:08:09.232Z,4.73
2023-05-03T09:10:42.622Z,4.07
2023-05-03T09:13:12.082Z,6.40
2023-05-03T09:15:41.214Z,5.83
2023-05-03T09:18:11.018Z,4.67
2023-05-03T09:20:51.163Z,4.43
2023-05-03T09:23:20.793Z,4.30
2023-05-03T09:25:52.424Z,4.97
2023-05-03T09:28:21.742Z,4.73
2023-05-03T09:30:51.579Z,4.13
2023-05-03T09:33:30.503Z,5.03
2023-05-03T09:36:02.394Z,4.63
2023-05-03T09:38:32.304Z,3.43
2023-05-03T09:41:01.822Z,5.33
2023-05-03T09:43:30.472Z,4.95
2023-05-03T09:46:09.895Z,4.97
2023-05-03T09:48:38.880Z,37.37
2023-05-03T09:51:10.208Z,68.13
2023-05-03T09:53:40.114Z,4.07
2023-05-03T09:56:12.396Z,4.07
2023-05-03T09:58:41.511Z,2.90
2023-05-03T10:01:10.891Z,4.90
2023-05-03T10:03:42.249Z,18.37
2023-05-03T10:06:25.029Z,3.07
2023-05-03T10:09:05.915Z,2.83
2023-05-03T10:11:36.310Z,4.25
2023-05-03T10:14:11.682Z,2.92
2023-05-03T10:16:45.515Z,3.53
2023-05-03T10:19:18.752Z,2.47
2023-05-03T10:22:00.222Z,3.35
2023-05-03T10:24:32.010Z,4.38
2023-05-03T10:27:00.810Z,3.55
2023-05-03T10:29:49.572Z,3.50
2023-05-03T10:32:39.595Z,2.78
2023-05-03T10:35:14.943Z,2.92
2023-05-03T10:37:45.636Z,2.67
2023-05-03T10:40:15.989Z,3.70
2023-05-03T10:42:46.405Z,2.95
2023-05-03T10:45:33.373Z,2.83
2023-05-03T10:48:20.592Z,2.28
2023-05-03T10:50:50.256Z,3.05
2023-05-03T10:53:40.890Z,3.08
2023-05-03T10:56:10.735Z,3.55
2023-05-03T10:58:43.589Z,3.13
2023-05-03T11:01:15.130Z,3.10
2023-05-03T11:03:51.352Z,3.53
2023-05-03T11:06:31.478Z,3.70
2023-05-03T11:09:03.942Z,3.40
2023-05-03T11:11:32.632Z,3.15
2023-05-03T11:14:01.484Z,3.42
2023-05-03T11:16:32.178Z,2.40
2023-05-03T11:19:01.536Z,3.35
2023-05-03T11:21:30.059Z,2.95
2023-05-03T11:24:02.465Z,2.80
2023-05-03T11:26:36.467Z,3.08
2023-05-03T11:29:05.897Z,3.20
2023-05-03T11:31:35.689Z,3.45
2023-05-03T11:34:04.713Z,2.70
2023-05-03T11:36:32.992Z,3.22
2023-05-03T11:39:05.723Z,2.83
2023-05-03T11:41:34.294Z,2.65
2023-05-03T11:44:15.248Z,2.88
2023-05-03T11:46:45.841Z,3.78
2023-05-03T11:49:19.675Z,4.40
2023-05-03T11:51:51.589Z,3.03
2023-05-03T11:54:27.346Z,2.90
2023-05-03T11:57:00.910Z,3.42
2023-05-03T11:59:40.211Z,2.72
2023-05-03T12:02:10.780Z,3.95
2023-05-03T12:04:42.895Z,3.25
2023-05-03T12:07:15.236Z,3.15
2023-05-03T12:09:56.043Z,3.17
2023-05-03T12:12:32.619Z,3.42
2023-05-03T12:15:04.272Z,2.90
2023-05-03T12:17:38.780Z,2.95
2023-05-03T12:22:57.805Z,2.38
2023-05-03T12:25:33.626Z,2.80
2023-05-03T12:30:53.578Z,2.92
2023-05-03T12:33:23.448Z,4.10
2023-05-03T12:35:53.933Z,7.20
2023-05-03T12:38:25.086Z,4.30
2023-05-03T12:40:55.462Z,4.05
2023-05-03T12:43:24.414Z,3.40
2023-05-03T12:46:08.061Z,4.82
2023-05-03T12:48:45.840Z,3.78
2023-05-03T12:51:19.988Z,3.88
2023-05-03T12:53:54.912Z,4.07
2023-05-03T12:56:26.062Z,3.50
2023-05-03T13:04:15.278Z,2.80
2023-05-03T13:06:46.832Z,3.20
2023-05-03T13:09:21.542Z,2.50
2023-05-03T13:11:54.824Z,4.22
2023-05-03T13:14:23.525Z,2.70
2023-05-03T13:16:51.969Z,2.80
2023-05-03T13:19:20.822Z,3.92
2023-05-03T13:21:49.535Z,10.50
2023-05-03T13:24:18.233Z,3.50
2023-05-03T13:26:46.531Z,4.97
2023-05-03T13:29:16.884Z,2.70
2023-05-03T13:31:45.341Z,3.00
2023-05-03T13:34:13.874Z,4.03
2023-05-03T13:36:42.125Z,12.20
2023-05-03T13:39:10.645Z,3.45
2023-05-03T13:41:42.006Z,3.03
2023-05-03T13:44:11.696Z,3.28
2023-05-03T13:46:43.292Z,3.22
2023-05-03T13:49:12.717Z,4.20
2023-05-03T13:51:41.325Z,3.40
2023-05-03T13:54:09.799Z,3.13
2023-05-03T13:56:38.240Z,3.22
2023-05-03T13:59:08.930Z,3.20
2023-05-03T14:01:38.101Z,3.50
2023-05-03T14:04:08.323Z,4.10
2023-05-03T14:06:40.238Z,3.67
2023-05-03T14:09:10.330Z,3.53
2023-05-03T14:11:40.023Z,3.85
2023-05-03T14:14:08.620Z,15.77
2023-05-03T14:16:41.459Z,4.47
2023-05-03T14:19:12.666Z,4.32
2023-05-03T14:21:42.872Z,3.25
2023-05-03T14:24:11.572Z,3.20
2023-05-03T14:26:39.846Z,4.40
2023-05-03T14:29:08.437Z,3.47
2023-05-03T14:31:36.966Z,3.17
2023-05-03T14:34:05.903Z,3.50
2023-05-03T14:36:38.761Z,2.85
2023-05-03T14:39:07.335Z,3.15
2023-05-03T14:41:35.872Z,3.95
2023-05-03T14:44:04.648Z,3.35
2023-05-03T14:46:32.935Z,2.50
2023-05-03T14:49:02.053Z,3.75
2023-05-03T14:51:30.326Z,3.88
2023-05-03T14:54:00.504Z,3.25
2023-05-03T14:56:31.647Z,2.95
2023-05-03T14:59:01.495Z,2.40
2023-05-03T15:01:29.964Z,3.30
2023-05-03T15:03:58.584Z,2.90
2023-05-03T15:06:30.637Z,3.63
2023-05-03T15:09:00.617Z,2.90
2023-05-03T15:11:28.820Z,3.88
2023-05-03T15:13:57.620Z,11.43
2023-05-03T15:16:26.341Z,5.32
2023-05-03T15:18:55.449Z,4.60
2023-05-03T15:21:24.180Z,3.22
2023-05-03T15:23:53.871Z,2.85
2023-05-03T15:26:24.413Z,9.85
2023-05-03T15:28:53.154Z,5.15
2023-05-03T15:31:21.758Z,9.00
2023-05-03T15:33:50.354Z,4.82
2023-05-03T15:36:19.059Z,3.75
2023-05-03T15:38:50.234Z,2.67
2023-05-03T15:41:18.540Z,4.47
2023-05-03T15:43:48.510Z,2.30
2023-05-03T15:46:17.004Z,3.15
2023-05-03T15:48:45.734Z,3.40
2023-05-03T15:51:14.186Z,3.10
2023-05-03T15:53:43.657Z,2.47
2023-05-03T15:56:12.439Z,2.90
2023-05-03T15:58:40.843Z,4.28
2023-05-03T16:01:10.768Z,16.17
2023-05-03T16:03:39.467Z,32.78
2023-05-03T16:06:08.056Z,23.85
2023-05-03T16:08:37.339Z,14.18
2023-05-03T16:11:06.012Z,10.15
2023-05-03T16:13:35.055Z,24.33
2023-05-03T16:16:03.597Z,17.90
2023-05-03T16:18:34.009Z,12.07
2023-05-03T16:21:02.848Z,7.90
2023-05-03T16:23:31.609Z,6.80
2023-05-03T16:26:00.068Z,4.10
2023-05-03T16:28:28.804Z,3.10
2023-05-03T16:30:57.048Z,4.47
2023-05-03T16:33:25.571Z,6.03
2023-05-03T16:35:55.060Z,3.50
2023-05-03T16:38:24.030Z,4.20
2023-05-03T16:40:52.377Z,5.03
2023-05-03T16:43:21.099Z,4.18
2023-05-03T16:45:57.429Z,5.97
2023-05-03T16:48:26.450Z,4.65
2023-05-03T16:50:56.347Z,4.15
2023-05-03T16:53:25.796Z,3.80
2023-05-03T16:55:54.568Z,7.85
2023-05-03T16:58:23.177Z,14.60
2023-05-03T17:00:52.052Z,9.68
2023-05-03T17:03:20.727Z,7.43
2023-05-03T17:05:49.082Z,5.05
2023-05-03T17:08:19.059Z,4.28
2023-05-03T17:10:47.387Z,3.88
2023-05-03T17:13:17.295Z,10.48
2023-05-03T17:15:45.648Z,5.53
2023-05-03T17:18:14.063Z,3.70
2023-05-03T17:20:42.974Z,3.58
2023-05-03T17:23:11.537Z,3.00
2023-05-03T17:25:41.246Z,3.72
2023-05-03T17:28:09.875Z,3.33
2023-05-03T17:30:39.212Z,3.28
2023-05-03T17:33:08.016Z,3.17
2023-05-03T17:35:36.497Z,3.35
2023-05-03T17:38:05.343Z,2.88
2023-05-03T17:40:33.672Z,5.47
2023-05-03T17:43:03.663Z,3.58
2023-05-03T17:45:31.838Z,3.38
2023-05-03T17:48:00.388Z,3.53
2023-05-03T17:50:28.769Z,4.32
2023-05-03T17:52:57.869Z,3.35
2023-05-03T17:55:26.471Z,2.25
2023-05-03T17:57:55.123Z,5.90
2023-05-03T18:00:27.868Z,4.88
2023-05-03T18:02:58.031Z,4.43
2023-05-03T18:05:34.000Z,3.47
2023-05-03T18:08:02.889Z,4.07
2023-05-03T18:10:31.705Z,3.92
2023-05-03T18:13:00.427Z,4.30
2023-05-03T18:15:30.600Z,3.25
2023-05-03T18:17:59.159Z,3.03
2023-05-03T18:20:27.669Z,4.03
2023-05-03T18:22:56.798Z,4.53
2023-05-03T18:25:25.370Z,14.80
2023-05-03T18:27:54.077Z,7.20
2023-05-03T18:30:22.683Z,5.10
2023-05-03T18:32:52.833Z,5.82
2023-05-03T18:35:21.397Z,5.80
2023-05-03T18:37:50.299Z,4.88
2023-05-03T18:40:18.790Z,3.70
2023-05-03T18:42:48.028Z,3.90
2023-05-03T18:45:17.590Z,4.00
2023-05-03T18:47:46.293Z,3.80
2023-05-03T18:50:16.308Z,4.15
2023-05-03T18:52:47.737Z,3.85
2023-05-03T18:55:16.315Z,4.00
2023-05-03T18:57:45.080Z,4.40
2023-05-03T19:00:14.330Z,3.42
2023-05-03T19:02:43.047Z,4.43
2023-05-03T19:05:13.990Z,4.45
2023-05-03T19:07:47.781Z,4.07
2023-05-03T19:10:19.845Z,2.88
2023-05-03T19:12:48.666Z,4.50
2023-05-03T19:15:17.261Z,3.63
2023-05-03T19:17:47.404Z,6.78
2023-05-03T19:20:17.377Z,4.90
2023-05-03T19:22:47.572Z,4.32
2023-05-03T19:25:16.102Z,3.75
2023-05-03T19:27:44.939Z,4.65
2023-05-03T19:30:13.986Z,4.35
2023-05-03T19:32:42.825Z,4.20
2023-05-03T19:35:11.677Z,4.22
2023-05-03T19:37:40.621Z,4.40
2023-05-03T19:40:12.280Z,5.13
2023-05-03T19:42:42.968Z,13.02
2023-05-03T19:45:16.427Z,8.73
2023-05-03T19:48:06.440Z,5.70
2023-05-03T19:50:36.982Z,4.93
2023-05-03T19:53:05.674Z,4.40
2023-05-03T19:55:35.554Z,5.17
2023-05-03T19:58:04.213Z,5.17
2023-05-03T20:00:32.481Z,4.83
2023-05-03T20:03:01.119Z,4.77
2023-05-03T20:05:29.480Z,5.33
2023-05-03T20:07:58.037Z,4.90
2023-05-03T20:10:28.174Z,4.53
2023-05-03T20:12:58.387Z,4.50
2023-05-03T20:15:26.799Z,4.97
2023-05-03T20:17:55.708Z,5.73
2023-05-03T20:20:24.449Z,6.43
2023-05-03T20:22:52.999Z,14.30
2023-05-03T20:25:21.840Z,14.60
2023-05-03T20:27:50.494Z,10.83
2023-05-03T20:30:20.332Z,6.70
2023-05-03T20:32:49.241Z,7.33
2023-05-03T20:35:18.052Z,5.83
2023-05-03T20:37:47.071Z,9.83
2023-05-03T20:40:15.681Z,6.97
2023-05-03T20:42:44.285Z,7.07
2023-05-03T20:45:13.063Z,6.60
2023-05-03T20:47:43.026Z,7.10
2023-05-03T20:50:11.905Z,6.60
2023-05-03T20:52:40.982Z,6.77
2023-05-03T20:55:10.381Z,15.37
2023-05-03T20:57:42.087Z,16.10
2023-05-03T21:00:12.487Z,16.93
2023-05-03T21:02:42.800Z,13.10
2023-05-03T21:05:11.625Z,10.33
2023-05-03T21:07:40.192Z,10.57
2023-05-03T21:10:09.660Z,9.10
2023-05-03T21:12:38.187Z,9.20
2023-05-03T21:15:07.301Z,9.37
2023-05-03T21:17:35.869Z,10.27
2023-05-03T21:20:06.684Z,9.30
2023-05-03T21:22:35.833Z,9.97
2023-05-03T21:25:04.224Z,9.90
2023-05-03T21:27:32.798Z,10.00
2023-05-03T21:30:01.746Z,12.50
2023-05-03T21:32:30.938Z,10.07
2023-05-03T21:34:59.243Z,10.00
2023-05-03T21:37:29.134Z,11.10
2023-05-03T21:40:02.023Z,14.00
2023-05-03T21:42:31.599Z,12.87
2023-05-03T21:45:00.151Z,11.27
2023-05-03T21:47:29.154Z,10.70
2023-05-03T21:49:57.549Z,9.57
2023-05-03T21:52:26.349Z,9.23
2023-05-03T21:54:56.252Z,10.83
2023-05-03T21:57:24.856Z,10.43
2023-05-03T21:59:54.101Z,10.67
2023-05-03T22:02:23.356Z,10.87
2023-05-03T22:04:52.803Z,11.67
2023-05-03T22:07:21.405Z,11.73
2023-05-03T22:09:49.893Z,11.33
2023-05-03T22:12:24.256Z,11.60
2023-05-03T22:14:53.331Z,10.50
2023-05-03T22:17:21.990Z,12.30
2023-05-03T22:19:50.504Z,12.03
2023-05-03T22:22:19.176Z,10.97
2023-05-03T22:24:47.608Z,10.60
2023-05-03T22:27:16.180Z,11.60
2023-05-03T22:29:46.010Z,10.97
2023-05-03T22:32:14.777Z,11.00
2023-05-03T22:34:44.470Z,11.83
2023-05-03T22:37:13.073Z,11.23
2023-05-03T22:39:41.571Z,11.03
2023-05-03T22:42:09.995Z,11.80
2023-05-03T22:44:38.371Z,10.60
2023-05-03T22:47:08.439Z,12.07
2023-05-03T22:49:37.222Z,10.97
2023-05-03T22:52:08.956Z,12.40
2023-05-03T22:54:37.396Z,13.53
2023-05-03T22:57:06.055Z,15.00
2023-05-03T22:59:34.575Z,12.07
2023-05-03T23:02:03.195Z,12.80
2023-05-03T23:04:32.948Z,14.20
2023-05-03T23:07:01.820Z,12.27
2023-05-03T23:09:30.289Z,13.30
2023-05-03T23:12:00.456Z,15.07
2023-05-03T23:14:28.690Z,13.47
2023-05-03T23:16:58.582Z,13.73
2023-05-03T23:19:27.247Z,14.90
2023-05-03T23:21:57.335Z,14.97
2023-05-03T23:24:25.835Z,17.03
2023-05-03T23:26:54.416Z,18.63
2023-05-03T23:29:23.129Z,15.47
2023-05-03T23:31:52.352Z,14.70
2023-05-03T23:34:21.361Z,14.47
2023-05-03T23:36:50.031Z,14.07
2023-05-03T23:39:19.662Z,13.07
2023-05-03T23:41:48.308Z,13.90
2023-05-03T23:44:16.644Z,14.60
2023-05-03T23:46:45.317Z,13.60
2023-05-03T23:49:13.714Z,15.27
2023-05-03T23:51:42.488Z,15.40
2023-05-03T23:54:10.765Z,14.97
2023-05-03T23:56:40.965Z,14.37
2023-05-03T23:59:09.336Z,16.20
